Airfield :
LOGIN :

Register | Disclaimer

   EN    FR    IT 

 










Legend :    VFR   Marginal VFR   IFR   Intensive IFR   Very Intensive IFR
Visi :
Ceiling :
>= 8 km
>= 3000ft
5 to 8 km
1000 to 3000 ft
1500m to 5 km
500 to 1000 ft
800 to 1500m
200 to 500 ft
< 800m
< 200 ft
Symbols :   Thunderstorms  Fog  Heavy snow  Heavy precipitations  Wind > 20 kt
SIGMETs :     Misc.  Thunderstorms  Icing  Turbulence  Mountain Waves  Volcanic Ashes






- Airport Elevation : 82 ft
- IATA code : QIE


LFMI - Istres

CURRENT METAR :
  • 181400Z AUTO 34033KT 9999 3100 NSC 14/M02 Q1012 BECMG 34030G45KT

EXPIRED METARs :
  • 181330Z AUTO 35033G45KT 9999 2300 NSC 14/M01 Q1012 NOSIG
  • 181300Z AUTO 34032G44KT 9999 2700 NSC 14/M01 Q1012 NOSIG
  • 181230Z AUTO 34030KT 9999 4500 NSC 14/M01 Q1013 BECMG 34030G45KT
  • 181200Z AUTO 34030KT CAVOK 14/M00 Q1013 BECMG 34030G45KT
  • 181130Z AUTO 34029KT CAVOK 14/00 Q1013 BECMG 34030G45KT
  • 181100Z AUTO 34028KT CAVOK 14/M00 Q1013 BECMG 34030G45KT
  • 181030Z AUTO 33023KT CAVOK 13/00 Q1013 BECMG 34030G45KT
  • 181000Z AUTO 34026G38KT 9999 FEW049 13/01 Q1013 NOSIG
  • 180930Z AUTO 33026KT 9999 FEW047 13/01 Q1013 BECMG 34030G45KT

TAF TAF LFMI
Valid from the 18 at 09:00 until the 19 at 09:00 UTC


180800Z 1809/1909 33025G35KT CAVOK TX16/1813Z TN08/1905Z
BECMG 1811/1813 34030G45KT
BECMG 1821/1823 35020G35KT



MET'MAP, your aeronautical weather chart ! - Copyright ORBIFLY December 2007 - Disclaimer

ORBIFLY MET'MAP TEAM :

Programming & Development : Alexandra Zaïnal
Original concept : Baudouin d'Aumeries
Technical & hardware support : Manuel Goepfert
Assistance : Marc-Olivier Méhu




SOURCES & CREDITS :

   NOAA